createdAt,value
2023-08-28T00:00:26.768Z,11.30
2023-08-28T00:05:33.337Z,12.20
2023-08-28T00:10:35.849Z,11.60
2023-08-28T00:15:38.380Z,12.30
2023-08-28T00:20:41.910Z,11.30
2023-08-28T00:25:44.543Z,12.20
2023-08-28T00:30:47.272Z,11.20
2023-08-28T00:35:50.825Z,11.30
2023-08-28T00:40:53.349Z,10.50
2023-08-28T00:45:56.849Z,13.20
2023-08-28T00:51:01.849Z,12.50
2023-08-28T00:56:04.580Z,13.10
2023-08-28T01:01:07.213Z,13.30
2023-08-28T01:06:30.146Z,11.90
2023-08-28T01:11:44.268Z,12.40
2023-08-28T01:16:51.224Z,12.20
2023-08-28T01:22:07.340Z,14.40
2023-08-28T01:27:10.450Z,13.10
2023-08-28T01:32:13.054Z,12.20
2023-08-28T01:37:20.490Z,13.00
2023-08-28T01:42:23.988Z,12.40
2023-08-28T01:47:26.838Z,12.30
2023-08-28T01:52:30.091Z,12.40
2023-08-28T01:57:32.479Z,13.80
2023-08-28T02:02:35.133Z,13.70
2023-08-28T02:07:37.695Z,14.70
2023-08-28T02:12:40.759Z,15.30
2023-08-28T02:17:43.354Z,13.30
2023-08-28T02:22:46.019Z,13.30
2023-08-28T02:27:48.513Z,14.10
2023-08-28T02:32:51.498Z,15.10
2023-08-28T02:37:53.975Z,15.10
2023-08-28T02:42:56.929Z,15.50
2023-08-28T02:47:59.483Z,16.30
2023-08-28T02:53:02.288Z,16.40
2023-08-28T02:58:05.595Z,15.80
2023-08-28T03:03:09.787Z,17.70
2023-08-28T03:08:12.361Z,17.50
2023-08-28T03:13:14.814Z,15.90
2023-08-28T03:18:17.347Z,17.10
2023-08-28T03:23:19.789Z,17.90
2023-08-28T03:28:22.206Z,16.10
2023-08-28T03:33:25.650Z,16.00
2023-08-28T03:48:32.838Z,18.00
2023-08-28T03:53:35.859Z,16.70
2023-08-28T03:58:39.171Z,15.80
2023-08-28T04:03:42.463Z,16.00
2023-08-28T04:08:44.984Z,16.40
2023-08-28T04:13:48.329Z,17.30
2023-08-28T04:23:54.717Z,15.20
2023-08-28T04:28:58.172Z,15.40
2023-08-28T04:34:02.018Z,15.50
2023-08-28T04:39:04.541Z,14.80
2023-08-28T04:44:07.115Z,14.50
2023-08-28T04:49:11.420Z,13.60
2023-08-28T04:54:13.903Z,11.70
2023-08-28T04:59:16.397Z,10.30
2023-08-28T05:09:22.226Z,10.40
2023-08-28T05:14:24.672Z,8.30
2023-08-28T05:19:27.096Z,9.10
2023-08-28T05:24:30.135Z,9.10
2023-08-28T05:29:32.646Z,7.80
2023-08-28T05:34:35.856Z,6.10
2023-08-28T05:39:38.266Z,5.70
2023-08-28T05:49:43.057Z,5.50
2023-08-28T05:54:45.567Z,5.50
2023-08-28T05:59:48.358Z,5.40
2023-08-28T06:05:22.050Z,6.30
2023-08-28T06:10:57.577Z,4.40
2023-08-28T06:16:00.088Z,4.70
2023-08-28T06:21:02.727Z,4.00
2023-08-28T06:26:05.175Z,4.10
2023-08-28T06:31:08.383Z,4.00
2023-08-28T06:36:11.364Z,3.60
2023-08-28T06:41:14.472Z,2.80
2023-08-28T06:46:17.557Z,3.30
2023-08-28T06:51:21.282Z,3.50
2023-08-28T06:56:24.418Z,3.00
2023-08-28T07:01:26.961Z,3.00
2023-08-28T07:06:30.045Z,3.20
2023-08-28T07:11:32.647Z,2.90
2023-08-28T07:16:35.364Z,3.10
2023-08-28T07:21:38.645Z,2.90
2023-08-28T07:26:44.216Z,3.10
2023-08-28T07:31:47.417Z,2.80
2023-08-28T07:36:50.298Z,3.00
2023-08-28T07:41:52.810Z,2.70
2023-08-28T07:46:55.231Z,3.00
2023-08-28T07:52:01.667Z,2.30
2023-08-28T07:57:07.768Z,1.80
2023-08-28T08:02:11.065Z,2.00
2023-08-28T08:07:13.875Z,1.70
2023-08-28T08:12:17.096Z,1.50
2023-08-28T08:17:20.215Z,1.60
2023-08-28T08:22:22.801Z,1.40
2023-08-28T08:27:26.586Z,1.30
2023-08-28T08:32:34.759Z,1.80
2023-08-28T08:37:37.466Z,2.10
2023-08-28T08:42:40.163Z,2.00
2023-08-28T08:47:49.803Z,1.80
2023-08-28T08:52:52.580Z,1.50
2023-08-28T08:57:58.833Z,1.30
2023-08-28T09:03:02.817Z,1.40
2023-08-28T09:08:11.648Z,1.40
2023-08-28T09:13:14.125Z,1.50
2023-08-28T09:18:19.279Z,1.10
2023-08-28T09:23:21.702Z,1.60
2023-08-28T09:28:24.566Z,1.10
2023-08-28T09:33:50.509Z,1.70
2023-08-28T09:39:07.037Z,1.50
2023-08-28T09:44:11.294Z,1.10
2023-08-28T09:49:14.962Z,1.40
2023-08-28T09:54:18.286Z,2.40
2023-08-28T09:59:21.458Z,2.40
2023-08-28T10:04:24.859Z,1.60
2023-08-28T10:09:30.697Z,1.70
2023-08-28T10:14:33.676Z,1.40
2023-08-28T10:20:04.688Z,1.20
2023-08-28T10:25:09.756Z,1.30
2023-08-28T10:30:59.983Z,1.60
2023-08-28T10:36:03.167Z,1.30
2023-08-28T10:41:07.887Z,1.20
2023-08-28T10:46:11.294Z,1.30
2023-08-28T10:51:16.231Z,1.10
2023-08-28T10:56:18.703Z,1.10
2023-08-28T11:01:21.282Z,1.10
2023-08-28T11:06:45.345Z,1.30
2023-08-28T11:11:48.805Z,1.80
2023-08-28T11:17:09.415Z,1.60
2023-08-28T11:22:12.054Z,1.60
2023-08-28T11:27:35.488Z,1.60
2023-08-28T11:32:41.814Z,1.40
2023-08-28T11:37:50.240Z,1.50
2023-08-28T11:43:06.070Z,1.40
2023-08-28T11:48:09.090Z,1.60
2023-08-28T11:53:11.629Z,1.60
2023-08-28T11:58:14.110Z,1.30
2023-08-28T12:03:21.429Z,1.60
2023-08-28T12:08:24.202Z,1.80
2023-08-28T12:13:26.779Z,1.50
2023-08-28T12:18:51.754Z,1.50
2023-08-28T12:23:58.117Z,1.60
2023-08-28T12:29:01.424Z,1.60
2023-08-28T12:34:12.290Z,1.70
2023-08-28T12:39:21.102Z,2.10
2023-08-28T12:44:25.395Z,1.60
2023-08-28T12:49:28.674Z,1.80
2023-08-28T12:54:34.024Z,1.70
2023-08-28T12:59:36.668Z,1.90
2023-08-28T13:04:43.525Z,1.70
2023-08-28T13:09:49.107Z,1.40
2023-08-28T13:14:51.941Z,1.40
2023-08-28T13:19:54.383Z,1.40
2023-08-28T13:24:56.790Z,1.80
2023-08-28T13:30:00.711Z,1.30
2023-08-28T13:35:05.242Z,1.50
2023-08-28T13:40:09.698Z,1.70
2023-08-28T13:45:13.299Z,1.60
2023-08-28T13:50:16.077Z,1.70
2023-08-28T13:55:18.724Z,1.20
2023-08-28T14:00:23.233Z,1.30
2023-08-28T14:05:25.840Z,1.50
2023-08-28T14:10:28.343Z,1.60
2023-08-28T14:15:31.217Z,1.30
2023-08-28T14:20:33.771Z,1.30
2023-08-28T14:25:36.332Z,1.30
2023-08-28T14:30:39.049Z,1.40
2023-08-28T14:35:47.847Z,1.40
2023-08-28T14:40:53.824Z,1.10
2023-08-28T14:45:57.288Z,1.30
2023-08-28T14:51:49.521Z,1.50
2023-08-28T14:56:52.211Z,1.60
2023-08-28T15:01:54.816Z,3.50
2023-08-28T15:06:59.273Z,4.80
2023-08-28T15:12:02.128Z,1.50
2023-08-28T15:17:05.414Z,2.10
2023-08-28T15:22:08.046Z,1.70
2023-08-28T15:27:10.784Z,1.60
2023-08-28T15:38:42.679Z,1.70
2023-08-28T15:43:45.299Z,1.20
2023-08-28T15:48:48.671Z,1.60
2023-08-28T15:53:51.374Z,1.50
2023-08-28T15:59:08.459Z,1.70
2023-08-28T16:04:18.751Z,1.80
2023-08-28T16:09:22.933Z,2.10
2023-08-28T16:14:26.325Z,2.00
2023-08-28T16:19:29.053Z,1.80
2023-08-28T16:24:31.686Z,1.90
2023-08-28T16:29:34.670Z,1.90
2023-08-28T16:34:39.205Z,2.30
2023-08-28T16:39:41.697Z,2.10
2023-08-28T16:44:44.370Z,2.10
2023-08-28T16:54:49.680Z,2.00
2023-08-28T16:59:52.172Z,2.90
2023-08-28T17:04:54.920Z,3.00
2023-08-28T17:09:57.704Z,3.50
2023-08-28T17:15:00.599Z,3.60
2023-08-28T17:20:05.481Z,4.30
2023-08-28T17:25:08.755Z,4.40
2023-08-28T17:30:12.200Z,3.90
2023-08-28T17:35:15.524Z,3.40
2023-08-28T17:40:20.414Z,2.60
2023-08-28T17:45:23.149Z,2.00
2023-08-28T17:55:30.488Z,2.20
2023-08-28T18:00:33.572Z,2.10
2023-08-28T18:05:37.105Z,2.30
2023-08-28T18:10:43.534Z,3.10
2023-08-28T18:15:47.837Z,1.90
2023-08-28T18:20:51.093Z,2.00
2023-08-28T18:25:53.591Z,2.00
2023-08-28T18:30:56.848Z,2.20
2023-08-28T18:36:02.502Z,1.80
2023-08-28T18:41:05.706Z,2.40
2023-08-28T18:46:10.097Z,2.10
2023-08-28T18:51:13.658Z,1.70
2023-08-28T18:56:21.953Z,1.80
2023-08-28T19:01:30.316Z,2.10
2023-08-28T19:06:32.988Z,2.90
2023-08-28T19:11:39.238Z,2.50
2023-08-28T19:16:42.804Z,2.90
2023-08-28T19:21:46.848Z,2.80
2023-08-28T19:26:53.381Z,2.20
2023-08-28T19:31:56.015Z,2.20
2023-08-28T19:37:01.147Z,2.20
2023-08-28T19:42:04.982Z,2.10
2023-08-28T19:47:07.565Z,2.40
2023-08-28T19:52:14.804Z,2.50
2023-08-28T19:57:22.388Z,2.50
2023-08-28T20:02:25.072Z,2.90
2023-08-28T20:07:28.652Z,2.50
2023-08-28T20:12:31.228Z,2.00
2023-08-28T20:17:34.619Z,2.50
2023-08-28T20:22:38.778Z,2.10
2023-08-28T20:27:44.554Z,2.10
2023-08-28T20:32:47.810Z,2.20
2023-08-28T20:37:50.537Z,2.60
2023-08-28T20:42:53.062Z,1.90
2023-08-28T20:47:55.706Z,2.00
2023-08-28T20:52:58.851Z,3.50
2023-08-28T20:58:01.552Z,1.90
2023-08-28T21:03:04.377Z,1.90
2023-08-28T21:08:07.354Z,2.00
2023-08-28T21:18:12.714Z,1.90
2023-08-28T21:23:15.371Z,2.10
2023-08-28T21:28:18.448Z,2.20
2023-08-28T21:38:23.362Z,2.60
2023-08-28T21:43:28.033Z,2.60
2023-08-28T21:48:34.547Z,2.40
2023-08-28T21:53:37.375Z,2.10
2023-08-28T21:58:39.921Z,1.90
2023-08-28T22:03:43.624Z,2.00
2023-08-28T22:08:46.210Z,2.20
2023-08-28T22:13:48.765Z,2.10
2023-08-28T22:18:51.314Z,2.50
2023-08-28T22:23:54.020Z,2.10
2023-08-28T22:28:57.425Z,1.80
2023-08-28T22:34:00.308Z,1.70
2023-08-28T22:39:03.851Z,1.80
2023-08-28T22:44:06.838Z,1.90
2023-08-28T22:49:09.363Z,1.80
2023-08-28T22:54:12.747Z,1.80
2023-08-28T22:59:15.775Z,1.80
2023-08-28T23:04:19.243Z,1.90
2023-08-28T23:09:25.131Z,2.20
2023-08-28T23:14:28.861Z,1.90
2023-08-28T23:19:32.083Z,2.60
2023-08-28T23:24:34.926Z,2.10
2023-08-28T23:29:38.099Z,2.60
2023-08-28T23:34:41.229Z,1.90
2023-08-28T23:39:43.750Z,2.10
2023-08-28T23:44:46.273Z,2.00
2023-08-28T23:49:49.376Z,2.20
2023-08-28T23:54:52.663Z,1.80
2023-08-28T23:59:55.848Z,1.60
